Time;durP1;ratioP1;P1;durP2;ratioP2;P2;SDS_P1;SDS_P2;PMS_P1;PMS_P2;Temp;Humidity;BMP_temperature;BMP_pressure;BME280_temperature;BME280_humidity;BME280_pressure;Samples;Min_cycle;Max_cycle;Signal;HPM_P1;HPM_P2
2022/03/07 00:01:29;;;;;;;;;;;;;;;-2.45;78.08;102780.88;5065287;28;19955;-81
2022/03/07 00:03:55;;;;;;;;;;;;;;;-2.41;80.02;102782.13;5066946;28;19924;-80
2022/03/07 00:06:21;;;;;;;;;;;;;;;-2.31;82.04;102779.88;5069502;28;19966;-80
2022/03/07 00:08:46;;;;;;;;;;;;;;;-2.17;83.30;102778.16;5073067;28;19989;-80
2022/03/07 00:11:12;;;;;;;;;;;;;;;-2.05;81.38;102780.22;5069202;28;19939;-80
2022/03/07 00:13:37;;;;;;;;;;;;;;;-2.03;82.65;102782.16;5068670;28;19979;-82
2022/03/07 00:16:03;;;;;;;;;;;;;;;-1.98;81.53;102776.00;5070223;28;19928;-81
2022/03/07 00:18:28;;;;;;;;;;;;;;;-1.98;81.07;102782.69;5068498;28;19928;-80
2022/03/07 00:20:55;;;;;;;;;;;;;;;-2.07;79.43;102776.63;5068270;28;20011;-80
2022/03/07 00:23:20;;;;;;;;;;;;;;;-2.12;79.78;102785.31;5068863;28;19913;-80
2022/03/07 00:25:46;;;;;;;;;;;;;;;-2.19;78.96;102781.22;5071012;28;20369;-81
2022/03/07 00:28:11;;;;;;;;;;;;;;;-2.25;79.68;102785.59;5068482;28;19929;-80
2022/03/07 00:30:37;;;;;;;;;;;;;;;-2.33;78.22;102792.31;5065459;28;19929;-81
2022/03/07 00:33:02;;;;;;;;;;;;;;;-2.46;78.11;102799.25;5070011;28;19917;-79
2022/03/07 00:35:27;;;;;;;;;;;;;;;-2.56;77.77;102794.81;5069031;28;19950;-80
2022/03/07 00:37:53;;;;;;;;;;;;;;;-2.65;78.34;102797.94;5069171;28;20388;-82
2022/03/07 00:40:18;;;;;;;;;;;;;;;-2.72;78.25;102794.75;5068512;28;19928;-81
2022/03/07 00:42:43;;;;;;;;;;;;;;;-2.79;77.88;102798.88;5070006;28;19927;-82
2022/03/07 00:45:10;;;;;;;;;;;;;;;-2.86;77.85;102797.31;5068585;28;19956;-79
2022/03/07 00:47:35;;;;;;;;;;;;;;;-2.89;78.15;102796.09;5065813;28;20007;-82
2022/03/07 00:50:01;;;;;;;;;;;;;;;-2.95;81.63;102793.78;5068584;28;20008;-82
2022/03/07 00:52:27;;;;;;;;;;;;;;;-2.92;80.59;102801.66;5067375;28;20010;-82
2022/03/07 00:54:52;;;;;;;;;;;;;;;-2.92;79.63;102801.66;5069072;28;20381;-82
2022/03/07 00:57:17;;;;;;;;;;;;;;;-2.93;79.44;102807.41;5068694;28;19959;-80
2022/03/07 00:59:42;;;;;;;;;;;;;;;-2.97;78.96;102803.69;5068701;28;19923;-79
2022/03/07 01:02:08;;;;;;;;;;;;;;;-3.02;78.62;102803.88;5050806;28;19966;-78
2022/03/07 01:04:33;;;;;;;;;;;;;;;-3.05;78.14;102806.03;5068730;28;20332;-76
2022/03/07 01:06:58;;;;;;;;;;;;;;;-3.10;78.68;102800.47;5069238;28;20015;-76
2022/03/07 01:09:23;;;;;;;;;;;;;;;-3.12;78.69;102796.91;5065873;28;19923;-77
2022/03/07 01:11:49;;;;;;;;;;;;;;;-3.17;78.88;102805.53;5071009;28;19920;-77
2022/03/07 01:14:14;;;;;;;;;;;;;;;-3.20;78.23;102799.28;5069601;28;19932;-78
2022/03/07 01:16:39;;;;;;;;;;;;;;;-3.23;79.15;102804.84;5069374;28;20383;-77
2022/03/07 01:19:04;;;;;;;;;;;;;;;-3.26;79.97;102805.41;5070097;28;19924;-77
2022/03/07 01:21:30;;;;;;;;;;;;;;;-3.25;78.90;102811.34;5069928;28;20526;-77
2022/03/07 01:23:55;;;;;;;;;;;;;;;-3.26;78.29;102804.50;5068808;28;19928;-77
2022/03/07 01:26:20;;;;;;;;;;;;;;;-3.27;79.30;102803.63;5069395;28;19922;-77
2022/03/07 01:28:45;;;;;;;;;;;;;;;-3.26;77.88;102799.47;5067413;28;20045;-77
2022/03/07 01:31:11;;;;;;;;;;;;;;;-3.27;79.07;102798.59;5067808;28;19920;-77
2022/03/07 01:33:36;;;;;;;;;;;;;;;-3.28;77.84;102800.91;5064237;28;20007;-77
2022/03/07 01:36:01;;;;;;;;;;;;;;;-3.32;78.19;102799.69;5066408;28;19931;-76
2022/03/07 01:38:26;;;;;;;;;;;;;;;-3.35;78.31;102796.78;5065730;28;19920;-76
2022/03/07 01:40:52;;;;;;;;;;;;;;;-3.39;77.85;102797.19;5066982;28;19924;-76
2022/03/07 01:43:17;;;;;;;;;;;;;;;-3.40;78.25;102800.41;5066738;28;19921;-75
2022/03/07 01:45:42;;;;;;;;;;;;;;;-3.44;77.78;102798.28;5064621;28;19925;-75
2022/03/07 01:48:08;;;;;;;;;;;;;;;-3.44;79.07;102802.41;5064927;28;20392;-76
2022/03/07 01:50:33;;;;;;;;;;;;;;;-3.46;78.34;102801.31;5065574;28;19917;-76
2022/03/07 01:52:59;;;;;;;;;;;;;;;-3.47;76.96;102802.03;5045656;28;19963;-77
2022/03/07 01:55:24;;;;;;;;;;;;;;;-3.48;77.83;102800.25;5064988;28;19936;-75
2022/03/07 01:57:49;;;;;;;;;;;;;;;-3.49;79.82;102798.47;5066028;28;19952;-74
2022/03/07 02:00:17;;;;;;;;;;;;;;;-3.51;77.16;102793.28;5064264;28;20007;-76
2022/03/07 02:02:43;;;;;;;;;;;;;;;-3.50;78.23;102795.06;5063521;28;20369;-75
2022/03/07 02:05:09;;;;;;;;;;;;;;;-3.53;78.79;102789.66;5065788;28;19957;-74
2022/03/07 02:07:36;;;;;;;;;;;;;;;-3.54;77.31;102791.28;5060179;28;19924;-76
2022/03/07 02:10:02;;;;;;;;;;;;;;;-3.54;77.45;102790.38;5063141;28;19947;-76
2022/03/07 02:12:28;;;;;;;;;;;;;;;-3.56;76.74;102781.78;5062756;28;19978;-76
2022/03/07 02:14:53;;;;;;;;;;;;;;;-3.56;76.72;102786.81;5063307;28;20473;-76
2022/03/07 02:17:18;;;;;;;;;;;;;;;-3.60;77.79;102785.53;5063599;28;19916;-78
2022/03/07 02:19:43;;;;;;;;;;;;;;;-3.62;77.53;102779.47;5062746;28;20174;-77
2022/03/07 02:22:10;;;;;;;;;;;;;;;-3.66;77.84;102779.81;5061847;28;19987;-77
2022/03/07 02:24:36;;;;;;;;;;;;;;;-3.69;78.34;102783.63;5065445;28;20388;-76
2022/03/07 02:27:03;;;;;;;;;;;;;;;-3.73;78.92;102781.44;5064819;28;19931;-76
2022/03/07 02:29:29;;;;;;;;;;;;;;;-3.74;79.16;102779.66;5064589;28;19928;-77
2022/03/07 02:31:54;;;;;;;;;;;;;;;-3.78;77.62;102779.28;5064700;28;19920;-76
2022/03/07 02:34:20;;;;;;;;;;;;;;;-3.78;78.46;102774.25;5060054;28;20389;-74
2022/03/07 02:36:45;;;;;;;;;;;;;;;-3.80;78.93;102778.22;5064702;28;19929;-76
2022/03/07 02:39:11;;;;;;;;;;;;;;;-3.83;77.09;102777.88;5064861;28;20400;-76
2022/03/07 02:41:36;;;;;;;;;;;;;;;-3.82;78.54;102773.75;5062970;28;19927;-76
2022/03/07 02:44:02;;;;;;;;;;;;;;;-3.84;78.41;102771.03;5064470;28;19927;-75
2022/03/07 02:46:27;;;;;;;;;;;;;;;-3.83;78.57;102782.00;5068260;28;20392;-76
2022/03/07 02:48:52;;;;;;;;;;;;;;;-3.84;82.00;102778.59;5068789;28;19947;-77
2022/03/07 02:51:17;;;;;;;;;;;;;;;-3.85;78.13;102771.78;5068603;28;19920;-76
2022/03/07 02:53:43;;;;;;;;;;;;;;;-3.85;79.34;102770.88;5064436;28;19982;-76
2022/03/07 02:56:08;;;;;;;;;;;;;;;-3.88;79.03;102775.56;5062922;28;19973;-75
2022/03/07 02:58:33;;;;;;;;;;;;;;;-3.89;80.76;102774.63;5067865;28;19923;-75
2022/03/07 03:00:59;;;;;;;;;;;;;;;-3.87;77.96;102772.31;5064414;28;20429;-76
2022/03/07 03:03:24;;;;;;;;;;;;;;;-3.86;78.46;102775.00;5067349;28;20169;-76
2022/03/07 03:05:54;;;;;;;;;;;;;;;-3.87;76.50;102769.81;5065388;28;20368;-73
2022/03/07 03:08:19;;;;;;;;;;;;;;;-3.87;78.16;102777.34;5080271;28;19923;-75
2022/03/07 03:10:44;;;;;;;;;;;;;;;-3.91;78.90;102768.56;5053201;28;20404;-74
2022/03/07 03:13:09;;;;;;;;;;;;;;;-3.91;80.95;102772.69;5067122;28;20003;-76
2022/03/07 03:15:35;;;;;;;;;;;;;;;-3.93;78.21;102766.59;5067113;28;19929;-75
2022/03/07 03:18:00;;;;;;;;;;;;;;;-3.94;75.95;102768.22;5066790;28;20381;-75
2022/03/07 03:20:25;;;;;;;;;;;;;;;-3.94;77.37;102764.78;5068428;28;19920;-75
2022/03/07 03:22:51;;;;;;;;;;;;;;;-3.94;80.07;102769.78;5064482;28;20005;-75
2022/03/07 03:25:16;;;;;;;;;;;;;;;-3.94;81.73;102769.78;5066000;28;19936;-76
2022/03/07 03:27:42;;;;;;;;;;;;;;;-3.94;80.34;102770.72;5048147;28;19946;-75
2022/03/07 03:30:08;;;;;;;;;;;;;;;-3.95;76.83;102761.38;5067099;28;19928;-76
2022/03/07 03:32:33;;;;;;;;;;;;;;;-3.94;76.48;102768.22;5068487;28;19916;-75
2022/03/07 03:34:59;;;;;;;;;;;;;;;-3.93;77.44;102767.47;5061059;28;19925;-75
2022/03/07 03:37:24;;;;;;;;;;;;;;;-3.92;77.40;102769.28;5064610;28;19928;-76
2022/03/07 03:39:50;;;;;;;;;;;;;;;-3.92;74.92;102773.41;5066419;28;19917;-74
2022/03/07 03:42:15;;;;;;;;;;;;;;;-3.93;78.42;102771.63;5046188;28;19928;-75
2022/03/07 03:44:40;;;;;;;;;;;;;;;-3.94;79.29;102772.31;5065873;28;19916;-76
2022/03/07 03:47:05;;;;;;;;;;;;;;;-3.96;80.05;102774.66;5048380;28;20339;-76
2022/03/07 03:49:31;;;;;;;;;;;;;;;-3.98;80.70;102781.13;5068073;28;19935;-76
2022/03/07 03:51:56;;;;;;;;;;;;;;;-3.96;85.90;102777.16;5064293;28;19929;-75
2022/03/07 03:54:22;;;;;;;;;;;;;;;-3.86;88.61;102774.13;5063521;28;19947;-73
2022/03/07 03:56:48;;;;;;;;;;;;;;;-3.64;93.28;102777.47;5066593;28;19968;-75
2022/03/07 03:59:13;;;;;;;;;;;;;;;-3.48;91.07;102776.00;5067697;28;19916;-75
2022/03/07 04:01:38;;;;;;;;;;;;;;;-3.31;92.73;102773.78;5067518;28;19971;-75
2022/03/07 04:04:04;;;;;;;;;;;;;;;-3.11;92.43;102776.03;5065807;28;20347;-74
2022/03/07 04:06:29;;;;;;;;;;;;;;;-2.98;92.28;102776.69;5065588;28;19936;-74
2022/03/07 04:09:00;;;;;;;;;;;;;;;-2.84;91.47;102778.25;5065320;28;20001;-74
2022/03/07 04:11:25;;;;;;;;;;;;;;;-2.72;91.04;102779.63;5063533;28;19931;-75
2022/03/07 04:13:50;;;;;;;;;;;;;;;-2.66;89.63;102776.00;5065896;28;19920;-74
2022/03/07 04:16:16;;;;;;;;;;;;;;;-2.66;88.70;102770.97;5048529;28;19927;-75
2022/03/07 04:18:41;;;;;;;;;;;;;;;-2.65;88.15;102775.28;5064452;28;19929;-75
2022/03/07 04:21:06;;;;;;;;;;;;;;;-2.70;89.99;102772.25;5065991;28;19934;-74
2022/03/07 04:23:31;;;;;;;;;;;;;;;-2.70;90.08;102767.19;5065801;28;19971;-75
2022/03/07 04:25:57;;;;;;;;;;;;;;;-2.66;90.25;102773.50;5065358;28;19989;-75
2022/03/07 04:28:22;;;;;;;;;;;;;;;-2.64;89.25;102777.94;5065724;28;19935;-75
2022/03/07 04:30:48;;;;;;;;;;;;;;;-2.65;90.29;102776.16;5064176;28;19925;-75
2022/03/07 04:33:13;;;;;;;;;;;;;;;-2.67;90.66;102779.22;5065132;28;19928;-75
2022/03/07 04:35:38;;;;;;;;;;;;;;;-2.67;90.62;102770.03;5064877;28;20316;-75
2022/03/07 04:38:03;;;;;;;;;;;;;;;-2.68;90.92;102773.28;5066062;28;19916;-75
2022/03/07 04:40:29;;;;;;;;;;;;;;;-2.68;90.22;102780.84;5064232;28;19928;-76
2022/03/07 04:42:56;;;;;;;;;;;;;;;-2.71;91.16;102775.50;5065220;28;19923;-75
2022/03/07 04:45:22;;;;;;;;;;;;;;;-2.73;90.86;102779.44;5065118;28;19935;-76
2022/03/07 04:47:47;;;;;;;;;;;;;;;-2.75;91.45;102779.28;5066400;28;19940;-76
2022/03/07 04:50:13;;;;;;;;;;;;;;;-2.75;90.72;102781.78;5066446;28;20270;-76
2022/03/07 04:52:38;;;;;;;;;;;;;;;-2.77;90.50;102783.25;5077558;28;19934;-75
2022/03/07 04:55:04;;;;;;;;;;;;;;;-2.80;91.03;102787.03;5065591;28;19925;-76
2022/03/07 04:57:29;;;;;;;;;;;;;;;-2.86;90.87;102787.25;5063131;28;19924;-76
2022/03/07 04:59:54;;;;;;;;;;;;;;;-2.88;91.29;102780.25;5065294;28;20019;-76
2022/03/07 05:02:20;;;;;;;;;;;;;;;-2.89;90.62;102786.91;5065628;28;19922;-76
2022/03/07 05:04:45;;;;;;;;;;;;;;;-2.92;89.85;102785.66;5059476;28;20015;-74
2022/03/07 05:07:10;;;;;;;;;;;;;;;-3.04;91.19;102785.19;5065076;28;20395;-75
2022/03/07 05:09:35;;;;;;;;;;;;;;;-3.07;91.20;102779.81;5065447;28;19928;-74
2022/03/07 05:12:01;;;;;;;;;;;;;;;-3.08;92.66;102775.50;5065697;28;19968;-76
2022/03/07 05:14:26;;;;;;;;;;;;;;;-3.06;92.27;102774.06;5066345;28;20403;-73
2022/03/07 05:16:51;;;;;;;;;;;;;;;-3.03;91.56;102776.94;5064297;28;19973;-76
2022/03/07 05:19:17;;;;;;;;;;;;;;;-3.02;92.26;102773.69;5066737;28;20369;-75
2022/03/07 05:21:42;;;;;;;;;;;;;;;-3.04;91.02;102773.47;5045914;28;20497;-75
2022/03/07 05:24:09;;;;;;;;;;;;;;;-3.10;92.34;102779.44;5066241;28;20404;-75
2022/03/07 05:26:34;;;;;;;;;;;;;;;-3.13;92.07;102779.13;5064174;28;20408;-75
2022/03/07 05:28:59;;;;;;;;;;;;;;;-3.14;93.05;102775.72;5049212;28;19928;-73
2022/03/07 05:31:24;;;;;;;;;;;;;;;-3.14;91.38;102774.81;5063958;28;19920;-74
2022/03/07 05:33:50;;;;;;;;;;;;;;;-3.16;92.79;102777.13;5064297;28;19983;-76
2022/03/07 05:36:15;;;;;;;;;;;;;;;-3.14;92.55;102785.78;5066461;28;20476;-77
2022/03/07 05:38:40;;;;;;;;;;;;;;;-3.11;93.67;102780.19;5063096;28;19970;-78
2022/03/07 05:41:05;;;;;;;;;;;;;;;-3.06;92.80;102779.09;5067743;28;19962;-79
2022/03/07 05:43:31;;;;;;;;;;;;;;;-3.06;92.59;102767.38;5066522;28;19927;-77
2022/03/07 05:45:56;;;;;;;;;;;;;;;-3.05;92.50;102770.81;5067180;28;20355;-75
2022/03/07 05:48:22;;;;;;;;;;;;;;;-3.02;91.82;102772.06;5067516;28;19932;-74
2022/03/07 05:50:47;;;;;;;;;;;;;;;-3.01;92.92;102778.00;5066224;28;19925;-80
2022/03/07 05:53:12;;;;;;;;;;;;;;;-3.02;92.51;102782.13;5065793;28;19939;-75
2022/03/07 05:55:38;;;;;;;;;;;;;;;-3.00;92.84;102779.78;5067985;28;19928;-78
2022/03/07 05:58:03;;;;;;;;;;;;;;;-2.99;93.24;102791.63;5066055;28;19921;-77
2022/03/07 06:00:29;;;;;;;;;;;;;;;-2.99;92.80;102794.16;5072083;28;19986;-80
2022/03/07 06:02:54;;;;;;;;;;;;;;;-2.99;92.52;102791.63;5069630;28;19970;-76
2022/03/07 06:05:20;;;;;;;;;;;;;;;-2.99;93.44;102800.06;5070787;28;19921;-77
2022/03/07 06:07:45;;;;;;;;;;;;;;;-3.00;92.14;102799.91;5066294;28;19931;-81
2022/03/07 06:10:11;;;;;;;;;;;;;;;-3.05;92.12;102799.38;5067084;28;19925;-79
2022/03/07 06:12:36;;;;;;;;;;;;;;;-3.11;91.81;102805.34;5070771;28;19928;-78
2022/03/07 06:15:04;;;;;;;;;;;;;;;-3.15;92.29;102810.78;5065173;28;19960;-80
2022/03/07 06:17:30;;;;;;;;;;;;;;;-3.17;92.60;102814.72;5062356;28;20396;-80
2022/03/07 06:19:55;;;;;;;;;;;;;;;-3.17;92.56;102812.19;5065787;28;19963;-79
2022/03/07 06:22:20;;;;;;;;;;;;;;;-3.24;90.80;102819.03;5072646;28;19972;-78
2022/03/07 06:24:45;;;;;;;;;;;;;;;-3.33;91.80;102817.13;5071643;28;19974;-77
2022/03/07 06:27:11;;;;;;;;;;;;;;;-3.27;nan;102826.25;5066079;28;19921;-75
2022/03/07 06:29:36;;;;;;;;;;;;;;;-3.14;93.42;102815.06;5065066;28;20002;-75
2022/03/07 06:32:01;;;;;;;;;;;;;;;-3.06;93.46;102819.34;5066638;28;19916;-77
2022/03/07 06:34:27;;;;;;;;;;;;;;;-2.97;92.78;102822.94;5068641;28;19978;-76
2022/03/07 06:36:53;;;;;;;;;;;;;;;-2.94;91.64;102829.91;5085006;28;20454;-78
2022/03/07 06:39:18;;;;;;;;;;;;;;;-2.95;92.52;102829.00;5065970;28;20270;-78
2022/03/07 06:41:43;;;;;;;;;;;;;;;-2.84;93.12;102830.25;5067862;28;20364;-81
2022/03/07 06:44:09;;;;;;;;;;;;;;;-2.50;92.88;102837.41;5054019;28;20349;-77
2022/03/07 06:46:34;;;;;;;;;;;;;;;-2.18;91.92;102831.81;5067595;28;19935;-77
2022/03/07 06:48:59;;;;;;;;;;;;;;;-1.68;90.74;102827.97;5067211;28;19928;-79
2022/03/07 06:51:24;;;;;;;;;;;;;;;-1.31;86.89;102830.31;5067923;28;19916;-80
2022/03/07 06:53:50;;;;;;;;;;;;;;;-1.14;86.70;102827.94;5068847;28;19916;-81
2022/03/07 06:56:17;;;;;;;;;;;;;;;-1.08;85.09;102830.22;5068422;28;19962;-81
2022/03/07 06:58:42;;;;;;;;;;;;;;;-1.22;84.90;102825.31;5071511;28;20502;-79
2022/03/07 07:01:07;;;;;;;;;;;;;;;-0.98;85.09;102827.03;5074753;28;19948;-81
2022/03/07 07:03:33;;;;;;;;;;;;;;;-0.23;83.04;102822.22;5073964;28;19928;-81
2022/03/07 07:05:58;;;;;;;;;;;;;;;0.70;78.37;102826.53;5073196;28;19928;-76
2022/03/07 07:08:23;;;;;;;;;;;;;;;1.25;77.22;102827.75;5070044;28;19924;-79
2022/03/07 07:10:49;;;;;;;;;;;;;;;2.01;73.65;102815.53;5064877;28;20015;-79
2022/03/07 07:13:14;;;;;;;;;;;;;;;2.74;69.37;102817.22;5049980;28;19924;-78
2022/03/07 07:15:40;;;;;;;;;;;;;;;3.23;70.02;102809.78;5067022;28;20050;-80
2022/03/07 07:18:06;;;;;;;;;;;;;;;3.76;64.42;102815.22;5068722;28;19924;-78
2022/03/07 07:20:31;;;;;;;;;;;;;;;4.26;62.11;102814.47;5067709;28;20379;-80
2022/03/07 07:22:56;;;;;;;;;;;;;;;4.70;60.21;102814.72;5069383;28;19928;-79
2022/03/07 07:25:21;;;;;;;;;;;;;;;5.05;60.25;102816.75;5065553;28;20285;-81
2022/03/07 07:27:46;;;;;;;;;;;;;;;5.58;60.56;102802.28;5070527;28;19926;-81
2022/03/07 07:30:12;;;;;;;;;;;;;;;6.08;59.46;102802.84;5068126;28;19974;-81
2022/03/07 07:32:39;;;;;;;;;;;;;;;6.81;58.95;102799.84;5066092;28;19967;-80
2022/03/07 07:35:04;;;;;;;;;;;;;;;7.46;55.26;102802.06;5071498;28;19932;-78
2022/03/07 07:37:30;;;;;;;;;;;;;;;8.23;54.01;102804.84;5078924;28;19928;-81
2022/03/07 07:39:55;;;;;;;;;;;;;;;9.09;47.65;102796.09;5071375;28;19932;-80
2022/03/07 07:42:20;;;;;;;;;;;;;;;9.50;47.51;102801.31;5067818;28;19936;-80
2022/03/07 07:44:45;;;;;;;;;;;;;;;10.01;45.88;102809.59;5069485;28;20269;-78
2022/03/07 07:47:11;;;;;;;;;;;;;;;10.13;49.08;102816.41;5070802;28;19928;-76
2022/03/07 07:49:36;;;;;;;;;;;;;;;10.51;40.58;102809.25;5068338;28;19925;-79
2022/03/07 07:52:02;;;;;;;;;;;;;;;10.86;39.94;102817.34;5068468;28;19921;-80
2022/03/07 07:54:30;;;;;;;;;;;;;;;11.23;40.95;102815.19;5067785;28;19920;-76
2022/03/07 07:56:55;;;;;;;;;;;;;;;11.69;39.15;102815.13;5068518;28;19920;-79
2022/03/07 07:59:21;;;;;;;;;;;;;;;11.44;38.15;102809.44;5069731;28;19927;-81
2022/03/07 08:01:46;;;;;;;;;;;;;;;11.15;39.15;102824.13;5068699;28;19925;-80
2022/03/07 08:04:12;;;;;;;;;;;;;;;11.42;39.86;102808.47;5069142;28;19921;-80
2022/03/07 08:06:38;;;;;;;;;;;;;;;11.44;38.05;102820.63;5063563;28;20014;-80
2022/03/07 08:09:03;;;;;;;;;;;;;;;11.31;37.96;102820.75;5064704;28;20349;-80
2022/03/07 08:11:29;;;;;;;;;;;;;;;10.96;38.43;102817.06;5073369;28;19925;-80
2022/03/07 08:13:54;;;;;;;;;;;;;;;10.61;38.58;102821.81;5069341;28;19940;-82
2022/03/07 08:16:20;;;;;;;;;;;;;;;10.51;40.14;102819.53;5049504;28;19931;-82
2022/03/07 08:18:45;;;;;;;;;;;;;;;10.64;39.36;102822.91;5078934;28;19924;-78
2022/03/07 08:21:11;;;;;;;;;;;;;;;10.95;39.04;102819.53;5075568;28;19940;-79
2022/03/07 08:23:36;;;;;;;;;;;;;;;11.67;38.93;102818.44;5075699;28;19926;-83
2022/03/07 08:26:01;;;;;;;;;;;;;;;12.31;40.69;102815.03;5071378;28;19999;-79
2022/03/07 08:28:27;;;;;;;;;;;;;;;13.19;35.29;102811.69;5071973;28;19920;-81
2022/03/07 08:30:52;;;;;;;;;;;;;;;13.62;35.22;102807.78;5078082;28;20333;-76
2022/03/07 08:33:17;;;;;;;;;;;;;;;13.74;35.57;102815.22;5086906;28;19948;-82
2022/03/07 08:35:42;;;;;;;;;;;;;;;14.03;33.57;102798.44;5078166;28;19925;-81
2022/03/07 08:38:08;;;;;;;;;;;;;;;14.37;33.08;102803.38;5073101;28;19920;-79
2022/03/07 08:40:33;;;;;;;;;;;;;;;14.37;34.52;102805.06;5072546;28;19928;-80
2022/03/07 08:42:58;;;;;;;;;;;;;;;14.98;32.82;102816.34;5077041;28;20019;-76
2022/03/07 08:45:25;;;;;;;;;;;;;;;15.15;31.31;102809.25;5079206;28;21437;-77
2022/03/07 08:47:51;;;;;;;;;;;;;;;14.45;30.56;102804.59;5078540;28;19916;-79
2022/03/07 08:50:18;;;;;;;;;;;;;;;14.44;32.53;102809.72;5079021;28;19965;-81
2022/03/07 08:52:43;;;;;;;;;;;;;;;14.63;31.60;102803.66;5074584;28;19932;-79
2022/03/07 08:55:09;;;;;;;;;;;;;;;14.23;32.14;102801.91;5068042;28;19928;-77
2022/03/07 08:57:34;;;;;;;;;;;;;;;13.88;31.63;102808.97;5068699;28;20046;-81
2022/03/07 09:00:00;;;;;;;;;;;;;;;14.17;30.79;102799.03;5069251;28;19955;-80
2022/03/07 09:02:25;;;;;;;;;;;;;;;14.73;31.45;102800.63;5067659;28;19920;-80
2022/03/07 09:04:50;;;;;;;;;;;;;;;14.93;30.64;102799.75;5065300;28;20308;-80
2022/03/07 09:07:16;;;;;;;;;;;;;;;15.36;29.43;102801.47;5064037;28;20439;-80
2022/03/07 09:09:41;;;;;;;;;;;;;;;15.35;27.86;102803.97;5051390;28;19920;-81
2022/03/07 09:12:09;;;;;;;;;;;;;;;14.85;28.13;102806.31;5067791;28;19916;-81
2022/03/07 09:14:34;;;;;;;;;;;;;;;13.98;29.17;102804.22;5065014;28;20399;-75
2022/03/07 09:17:00;;;;;;;;;;;;;;;13.69;29.48;102806.34;5067129;28;19916;-79
2022/03/07 09:19:25;;;;;;;;;;;;;;;13.79;30.93;102811.13;5067436;28;19955;-80
2022/03/07 09:21:51;;;;;;;;;;;;;;;14.37;30.76;102808.53;5063466;28;20018;-82
2022/03/07 09:24:17;;;;;;;;;;;;;;;14.62;29.26;102797.59;5062905;28;20430;-79
2022/03/07 09:26:43;;;;;;;;;;;;;;;14.26;28.07;102790.78;5069257;28;19935;-79
2022/03/07 09:29:10;;;;;;;;;;;;;;;13.95;30.22;102798.09;5073092;28;19957;-77
2022/03/07 09:31:35;;;;;;;;;;;;;;;14.32;28.52;102794.53;5052692;28;20402;-81
2022/03/07 09:34:01;;;;;;;;;;;;;;;14.69;28.33;102796.16;5068351;28;20025;-80
2022/03/07 09:36:26;;;;;;;;;;;;;;;14.77;27.50;102792.16;5064731;28;19933;-77
2022/03/07 09:38:52;;;;;;;;;;;;;;;14.27;27.93;102792.56;5064029;28;19974;-81
2022/03/07 09:41:18;;;;;;;;;;;;;;;14.79;29.20;102790.50;5065186;28;19920;-81
2022/03/07 09:43:44;;;;;;;;;;;;;;;15.32;27.44;102788.31;5065976;28;19966;-81
2022/03/07 09:46:09;;;;;;;;;;;;;;;15.55;28.48;102787.50;5064129;28;20003;-81
2022/03/07 09:48:34;;;;;;;;;;;;;;;15.49;26.72;102788.16;5061238;28;19976;-81
2022/03/07 09:51:00;;;;;;;;;;;;;;;15.17;26.36;102788.63;5060456;28;19942;-80
2022/03/07 09:53:25;;;;;;;;;;;;;;;14.99;27.48;102784.47;5064329;28;19923;-83
2022/03/07 09:55:51;;;;;;;;;;;;;;;15.87;27.15;102780.94;5065275;28;19931;-82
2022/03/07 09:58:16;;;;;;;;;;;;;;;16.56;25.48;102771.31;5066476;28;20041;-82
2022/03/07 10:00:42;;;;;;;;;;;;;;;16.91;26.65;102771.59;5064601;28;19937;-81
2022/03/07 10:03:09;;;;;;;;;;;;;;;17.64;25.74;102770.38;5049821;28;19921;-77
2022/03/07 10:05:38;;;;;;;;;;;;;;;18.62;24.71;102753.13;5068835;28;20065;-76
2022/03/07 10:08:04;;;;;;;;;;;;;;;19.12;22.89;102761.31;5059615;28;19921;-81
2022/03/07 10:10:31;;;;;;;;;;;;;;;18.66;22.61;102759.28;5065593;28;20408;-78
2022/03/07 10:12:57;;;;;;;;;;;;;;;17.88;23.60;102754.63;5066932;28;20373;-80
2022/03/07 10:15:23;;;;;;;;;;;;;;;17.06;23.85;102764.31;5065717;28;20062;-80
2022/03/07 10:17:52;;;;;;;;;;;;;;;15.46;25.74;102769.88;5061098;28;19931;-81
2022/03/07 10:20:19;;;;;;;;;;;;;;;15.41;25.63;102761.06;5067304;28;19923;-81
2022/03/07 10:22:46;;;;;;;;;;;;;;;15.37;25.78;102766.94;5063740;28;19924;-80
2022/03/07 10:25:12;;;;;;;;;;;;;;;15.40;26.35;102768.75;5063585;28;19917;-80
2022/03/07 10:27:38;;;;;;;;;;;;;;;15.46;25.33;102758.63;5067617;28;19962;-81
2022/03/07 10:30:08;;;;;;;;;;;;;;;14.95;26.22;102755.78;5066234;28;19971;-82
2022/03/07 10:32:33;;;;;;;;;;;;;;;15.22;26.69;102749.06;5066384;28;19916;-81
2022/03/07 10:34:58;;;;;;;;;;;;;;;15.49;26.09;102749.25;5066102;28;19946;-81
2022/03/07 10:37:34;;;;;;;;;;;;;;;15.67;26.30;102741.31;5041220;28;19932;-80
2022/03/07 10:39:59;;;;;;;;;;;;;;;15.73;25.67;102731.16;5067089;28;19978;-78
2022/03/07 10:42:24;;;;;;;;;;;;;;;15.35;25.95;102734.91;5065413;28;20404;-80
2022/03/07 10:44:50;;;;;;;;;;;;;;;15.68;26.37;102737.00;5064116;28;19930;-79
2022/03/07 10:47:16;;;;;;;;;;;;;;;16.19;25.32;102726.72;5064592;28;19975;-80
2022/03/07 10:49:55;;;;;;;;;;;;;;;16.04;25.42;102727.97;5065378;28;19920;-80
2022/03/07 10:52:21;;;;;;;;;;;;;;;16.41;25.90;102716.25;5065244;28;19928;-79
2022/03/07 10:54:48;;;;;;;;;;;;;;;16.98;24.41;102716.38;5066561;28;19940;-80
2022/03/07 10:57:13;;;;;;;;;;;;;;;16.83;24.35;102721.13;5059719;28;20003;-79
2022/03/07 10:59:38;;;;;;;;;;;;;;;15.99;24.92;102713.94;5065735;28;20047;-80
2022/03/07 11:02:10;;;;;;;;;;;;;;;15.25;26.18;102705.16;5064375;28;19917;-80
2022/03/07 11:04:39;;;;;;;;;;;;;;;15.25;26.31;102705.16;5067948;28;20049;-83
2022/03/07 11:07:05;;;;;;;;;;;;;;;14.47;27.01;102695.97;5085514;28;19931;-80
2022/03/07 11:09:30;;;;;;;;;;;;;;;13.79;27.86;102699.06;5068966;28;19916;-80
2022/03/07 11:11:56;;;;;;;;;;;;;;;13.29;28.47;102705.44;5071162;28;20297;-80
2022/03/07 11:14:22;;;;;;;;;;;;;;;12.96;29.60;102696.94;5071670;28;19921;-79
2022/03/07 11:16:49;;;;;;;;;;;;;;;13.78;27.97;102697.31;5069600;28;19996;-77
2022/03/07 11:19:16;;;;;;;;;;;;;;;14.19;27.99;102691.31;5064010;28;19928;-79
2022/03/07 11:21:43;;;;;;;;;;;;;;;14.37;27.80;102689.50;5068886;28;19924;-79
2022/03/07 11:24:08;;;;;;;;;;;;;;;14.72;27.57;102682.31;5070117;28;20368;-76
2022/03/07 11:26:33;;;;;;;;;;;;;;;15.34;26.24;102681.28;5069585;28;19939;-76
2022/03/07 11:28:59;;;;;;;;;;;;;;;14.53;26.96;102675.53;5071262;28;20149;-79
2022/03/07 11:31:26;;;;;;;;;;;;;;;13.94;27.99;102677.34;5062128;28;19923;-78
2022/03/07 11:33:53;;;;;;;;;;;;;;;13.94;28.04;102679.91;5064848;28;20661;-79
2022/03/07 11:36:19;;;;;;;;;;;;;;;13.93;28.69;102670.41;5068857;28;19966;-81
2022/03/07 11:38:58;;;;;;;;;;;;;;;14.76;27.72;102660.91;5068068;28;20342;-80
2022/03/07 11:41:28;;;;;;;;;;;;;;;14.97;26.92;102668.63;5068694;28;19981;-80
2022/03/07 11:44:01;;;;;;;;;;;;;;;15.42;26.46;102653.94;5066439;28;19923;-81
2022/03/07 11:46:30;;;;;;;;;;;;;;;15.21;26.72;102658.31;5067370;28;20396;-80
2022/03/07 11:48:56;;;;;;;;;;;;;;;14.80;27.09;102667.97;5066627;28;19952;-79
2022/03/07 11:51:23;;;;;;;;;;;;;;;15.60;26.27;102645.06;5069269;28;20009;-80
2022/03/07 11:53:49;;;;;;;;;;;;;;;16.02;25.41;102654.38;5067070;28;19917;-79
2022/03/07 11:56:19;;;;;;;;;;;;;;;15.89;25.50;102659.94;5068069;28;19928;-79
2022/03/07 11:58:49;;;;;;;;;;;;;;;15.00;26.77;102656.69;5061843;28;20377;-79
2022/03/07 12:01:15;;;;;;;;;;;;;;;14.26;27.56;102657.13;5064203;28;19966;-80
2022/03/07 12:03:40;;;;;;;;;;;;;;;13.92;28.13;102647.94;5067906;28;19920;-79
2022/03/07 12:06:07;;;;;;;;;;;;;;;14.77;27.51;102646.25;5057566;28;19923;-81
2022/03/07 12:08:44;;;;;;;;;;;;;;;14.62;27.45;102644.84;5063815;28;19920;-77
2022/03/07 12:11:10;;;;;;;;;;;;;;;14.71;27.22;102636.53;5062362;28;19950;-77
2022/03/07 12:13:45;;;;;;;;;;;;;;;14.58;27.20;102626.53;5063166;28;19926;-78
2022/03/07 12:16:12;;;;;;;;;;;;;;;13.87;27.48;102620.13;5062616;28;20311;-78
2022/03/07 12:18:37;;;;;;;;;;;;;;;13.34;28.77;102624.72;5079837;28;19934;-77
2022/03/07 12:21:03;;;;;;;;;;;;;;;13.20;28.98;102636.09;5061595;28;19924;-79
2022/03/07 12:23:30;;;;;;;;;;;;;;;13.31;28.58;102642.69;5061172;28;19920;-80
2022/03/07 12:26:00;;;;;;;;;;;;;;;12.88;29.39;102619.13;5063148;28;19978;-79
2022/03/07 12:28:27;;;;;;;;;;;;;;;13.76;28.25;102611.03;5064578;28;19955;-77
2022/03/07 12:30:53;;;;;;;;;;;;;;;13.93;27.81;102605.75;5067030;28;19955;-78